createdAt,value
2023-09-15T00:00:19.113Z,95136.72
2023-09-15T00:02:47.172Z,95137.78
2023-09-15T00:05:15.227Z,95134.19
2023-09-15T00:07:42.370Z,95134.97
2023-09-15T00:10:13.220Z,95144.72
2023-09-15T00:12:43.676Z,95122.63
2023-09-15T00:15:11.388Z,95134.75
2023-09-15T00:17:40.392Z,95139.88
2023-09-15T00:20:14.720Z,95138.88
2023-09-15T00:22:50.612Z,95142.38
2023-09-15T00:25:21.634Z,95143.63
2023-09-15T00:27:50.220Z,95150.31
2023-09-15T00:30:19.006Z,95139.97
2023-09-15T00:32:48.453Z,95148.22
2023-09-15T00:35:19.164Z,95149.63
2023-09-15T00:37:47.486Z,95139.81
2023-09-15T00:40:15.982Z,95138.66
2023-09-15T00:42:44.831Z,95141.38
2023-09-15T00:45:15.832Z,95142.69
2023-09-15T00:47:47.453Z,95143.28
2023-09-15T00:50:16.183Z,95140.56
2023-09-15T00:52:46.491Z,95139.91
2023-09-15T00:55:14.726Z,95145.91
2023-09-15T00:57:42.222Z,95145.81
2023-09-15T01:00:14.951Z,95142.59
2023-09-15T01:02:46.010Z,95142.91
2023-09-15T01:05:21.024Z,95148.53
2023-09-15T01:07:50.534Z,95147.59
2023-09-15T01:10:17.295Z,95156.66
2023-09-15T01:12:44.755Z,95160.34
2023-09-15T01:15:12.103Z,95160.16
2023-09-15T01:18:07.874Z,95163.88
2023-09-15T01:21:06.791Z,95157.84
2023-09-15T01:23:55.211Z,95169.09
2023-09-15T01:26:28.047Z,95165.69
2023-09-15T01:28:57.928Z,95171.81
2023-09-15T01:31:25.841Z,95168.38
2023-09-15T01:33:53.856Z,95161.47
2023-09-15T01:36:20.776Z,95161.47
2023-09-15T01:38:48.255Z,95163.84
2023-09-15T01:41:15.335Z,95168.38
2023-09-15T01:43:42.284Z,95169.38
2023-09-15T01:46:09.202Z,95163.47
2023-09-15T01:48:37.472Z,95172.34
2023-09-15T01:51:04.869Z,95184.50
2023-09-15T01:53:32.587Z,95181.97
2023-09-15T01:55:59.517Z,95178.78
2023-09-15T01:58:26.459Z,95179.88
2023-09-15T02:00:53.428Z,95171.03
2023-09-15T02:03:20.435Z,95181.50
2023-09-15T02:05:47.762Z,95179.09
2023-09-15T02:08:14.817Z,95190.16
2023-09-15T02:10:41.625Z,95187.34
2023-09-15T02:13:10.356Z,95191.47
2023-09-15T02:15:37.215Z,95191.19
2023-09-15T02:18:04.742Z,95191.13
2023-09-15T02:20:31.921Z,95187.69
2023-09-15T02:23:04.788Z,95188.56
2023-09-15T02:25:32.351Z,95198.28
2023-09-15T02:27:59.374Z,95193.50
2023-09-15T02:30:29.008Z,95199.94
2023-09-15T02:32:56.023Z,95196.81
2023-09-15T02:35:22.973Z,95194.75
2023-09-15T02:37:49.836Z,95200.34
2023-09-15T02:40:17.051Z,95202.72
2023-09-15T02:42:44.038Z,95196.38
2023-09-15T02:45:12.152Z,95195.63
2023-09-15T02:47:39.077Z,95200.22
2023-09-15T02:50:06.986Z,95203.97
2023-09-15T02:52:34.326Z,95212.25
2023-09-15T02:55:01.290Z,95212.25
2023-09-15T02:57:31.492Z,95211.97
2023-09-15T03:00:01.274Z,95143.94
2023-09-15T03:02:30.515Z,95216.69
2023-09-15T03:04:57.750Z,95213.81
2023-09-15T03:07:24.833Z,95210.88
2023-09-15T03:09:51.838Z,95214.59
2023-09-15T03:12:18.907Z,95211.91
2023-09-15T03:14:45.979Z,95215.66
2023-09-15T03:17:13.597Z,95220.31
2023-09-15T03:19:41.900Z,95225.72
2023-09-15T03:22:09.698Z,95223.53
2023-09-15T03:24:37.982Z,95224.75
2023-09-15T03:27:06.542Z,95230.84
2023-09-15T03:29:33.427Z,95226.88
2023-09-15T03:32:00.292Z,95225.63
2023-09-15T03:34:27.283Z,95231.84
2023-09-15T03:36:54.654Z,95221.06
2023-09-15T03:39:23.161Z,95231.88
2023-09-15T03:41:50.087Z,95230.25
2023-09-15T03:44:16.934Z,95236.53
2023-09-15T03:46:43.963Z,95232.00
2023-09-15T03:49:11.020Z,95220.59
2023-09-15T03:51:38.009Z,95230.31
2023-09-15T03:54:05.021Z,95228.28
2023-09-15T03:56:33.908Z,95239.47
2023-09-15T03:59:01.339Z,95250.19
2023-09-15T04:01:28.311Z,95248.44
2023-09-15T04:03:55.433Z,95246.13
2023-09-15T04:06:23.713Z,95251.97
2023-09-15T04:08:51.226Z,95244.59
2023-09-15T04:11:18.901Z,95248.31
2023-09-15T04:13:45.911Z,95256.34
2023-09-15T04:16:13.039Z,95251.66
2023-09-15T04:18:40.044Z,95256.56
2023-09-15T04:21:06.984Z,95263.72
2023-09-15T04:23:34.680Z,95260.75
2023-09-15T04:26:05.341Z,95262.44
2023-09-15T04:28:32.237Z,95250.22
2023-09-15T04:30:59.557Z,95257.38
2023-09-15T04:33:26.621Z,95266.00
2023-09-15T04:35:53.659Z,95274.91
2023-09-15T04:38:20.705Z,95274.88
2023-09-15T04:40:47.885Z,95282.09
2023-09-15T04:43:18.245Z,95282.28
2023-09-15T04:45:45.923Z,95273.03
2023-09-15T04:48:13.225Z,95275.63
2023-09-15T04:50:40.893Z,95274.19
2023-09-15T04:53:11.157Z,95278.72
2023-09-15T04:55:41.073Z,95275.81
2023-09-15T04:58:08.945Z,95285.59
2023-09-15T05:00:36.493Z,95284.88
2023-09-15T05:03:04.925Z,95278.59
2023-09-15T05:05:32.146Z,95268.13
2023-09-15T05:07:59.770Z,95273.31
2023-09-15T05:10:26.973Z,95278.28
2023-09-15T05:12:54.260Z,95290.59
2023-09-15T05:15:22.391Z,95290.88
2023-09-15T05:17:49.475Z,95301.03
2023-09-15T05:20:17.917Z,95299.66
2023-09-15T05:22:44.864Z,95304.31
2023-09-15T05:25:12.208Z,95301.56
2023-09-15T05:27:39.496Z,95298.25
2023-09-15T05:30:08.025Z,95305.34
2023-09-15T05:32:37.539Z,95302.94
2023-09-15T05:35:07.383Z,95305.31
2023-09-15T05:37:34.750Z,95306.19
2023-09-15T05:40:01.845Z,95302.63
2023-09-15T05:42:30.146Z,95306.16
2023-09-15T05:44:56.999Z,95299.56
2023-09-15T05:47:24.015Z,95303.72
2023-09-15T05:49:51.017Z,95310.53
2023-09-15T05:52:18.856Z,95307.34
2023-09-15T05:54:45.811Z,95317.97
2023-09-15T05:57:12.825Z,95316.84
2023-09-15T05:59:39.687Z,95319.19
2023-09-15T06:02:08.292Z,95308.94
2023-09-15T06:04:35.382Z,95312.75
2023-09-15T06:07:02.449Z,95320.81
2023-09-15T06:09:29.398Z,95313.34
2023-09-15T06:11:56.258Z,95321.00
2023-09-15T06:14:23.230Z,95315.88
2023-09-15T06:16:50.253Z,95310.59
2023-09-15T06:19:17.171Z,95322.34
2023-09-15T06:21:44.088Z,95326.25
2023-09-15T06:24:10.977Z,95309.97
2023-09-15T06:26:39.265Z,95315.69
2023-09-15T06:29:07.307Z,95314.97
2023-09-15T06:31:34.629Z,95308.25
2023-09-15T06:34:01.921Z,95317.59
2023-09-15T06:36:28.843Z,95313.09
2023-09-15T06:38:56.128Z,95313.75
2023-09-15T06:41:23.101Z,95310.25
2023-09-15T06:43:50.256Z,95311.16
2023-09-15T06:46:23.161Z,95315.19
2023-09-15T06:48:50.638Z,95302.75
2023-09-15T06:51:17.556Z,95312.00
2023-09-15T06:53:44.451Z,95311.97
2023-09-15T06:56:11.257Z,95314.09
2023-09-15T06:58:38.107Z,95300.47
2023-09-15T07:01:05.427Z,95305.38
2023-09-15T07:03:34.136Z,95299.19
2023-09-15T07:06:01.209Z,95292.19
2023-09-15T07:08:28.179Z,95306.22
2023-09-15T07:10:55.089Z,95310.31
2023-09-15T07:13:22.250Z,95303.88
2023-09-15T07:15:49.192Z,95292.59
2023-09-15T07:18:16.270Z,95300.28
2023-09-15T07:20:43.458Z,95303.44
2023-09-15T07:23:11.012Z,95302.63
2023-09-15T07:25:38.383Z,95299.00
2023-09-15T07:28:06.065Z,95298.16
2023-09-15T07:30:33.120Z,95295.09
2023-09-15T07:33:01.037Z,95294.19
2023-09-15T07:35:28.164Z,95291.47
2023-09-15T07:37:55.078Z,95296.63
2023-09-15T07:40:25.269Z,95295.31
2023-09-15T07:42:52.796Z,95306.03
2023-09-15T07:45:19.912Z,95295.28
2023-09-15T07:47:47.452Z,95299.84
2023-09-15T07:50:14.688Z,95297.94
2023-09-15T07:52:42.044Z,95303.13
2023-09-15T07:55:09.443Z,95293.47
2023-09-15T07:57:38.583Z,95290.44
2023-09-15T08:00:08.638Z,95290.91
2023-09-15T08:02:41.702Z,95289.81
2023-09-15T08:05:09.338Z,95289.19
2023-09-15T08:07:36.469Z,95282.63
2023-09-15T08:10:04.968Z,95282.72
2023-09-15T08:12:32.340Z,95279.16
2023-09-15T08:14:59.231Z,95281.56
2023-09-15T08:17:33.782Z,95282.00
2023-09-15T08:20:03.034Z,95280.41
2023-09-15T08:22:31.459Z,95276.91
2023-09-15T08:24:59.789Z,95276.91
2023-09-15T08:27:27.134Z,95273.81
2023-09-15T08:29:54.371Z,95272.97
2023-09-15T08:32:21.363Z,95271.09
2023-09-15T08:34:48.291Z,95265.63
2023-09-15T08:37:15.329Z,95265.19
2023-09-15T08:39:42.242Z,95264.00
2023-09-15T08:42:24.968Z,95265.06
2023-09-15T08:44:53.144Z,95262.59
2023-09-15T08:47:23.612Z,95256.28
2023-09-15T08:49:52.787Z,95256.84
2023-09-15T08:52:20.250Z,95257.09
2023-09-15T08:54:47.791Z,95245.88
2023-09-15T08:57:16.681Z,95241.22
2023-09-15T08:59:44.042Z,95246.75
2023-09-15T09:02:13.498Z,95248.03
2023-09-15T09:04:41.021Z,95243.72
2023-09-15T09:07:09.003Z,95248.34
2023-09-15T09:09:37.776Z,95244.03
2023-09-15T09:12:05.153Z,95244.16
2023-09-15T09:14:32.013Z,95223.13
2023-09-15T09:16:59.712Z,95240.94
2023-09-15T09:19:36.277Z,95244.94
2023-09-15T09:22:03.782Z,95240.28
2023-09-15T09:24:30.801Z,95245.09
2023-09-15T09:26:57.907Z,95240.88
2023-09-15T09:29:28.979Z,95250.81
2023-09-15T09:31:56.661Z,95247.38
2023-09-15T09:34:39.502Z,95241.91
2023-09-15T09:37:10.736Z,95235.56
2023-09-15T09:39:37.802Z,95235.16
2023-09-15T09:42:05.437Z,95247.00
2023-09-15T09:44:37.398Z,95245.97
2023-09-15T09:47:10.874Z,95248.63
2023-09-15T09:49:38.741Z,95241.53
2023-09-15T09:52:05.764Z,95237.81
2023-09-15T09:54:35.363Z,95234.38
2023-09-15T09:57:04.001Z,95235.41
2023-09-15T09:59:31.113Z,95238.22
2023-09-15T10:01:58.034Z,95237.44
2023-09-15T10:04:24.960Z,95225.47
2023-09-15T10:06:52.503Z,95234.25
2023-09-15T10:09:20.042Z,95224.34
2023-09-15T10:11:47.812Z,95222.19
2023-09-15T10:14:15.204Z,95228.34
2023-09-15T10:16:42.089Z,95229.88
2023-09-15T10:19:10.725Z,95223.53
2023-09-15T10:21:38.571Z,95225.56
2023-09-15T10:24:07.590Z,95208.53
2023-09-15T10:26:43.033Z,95211.03
2023-09-15T10:29:14.447Z,95220.06
2023-09-15T10:31:48.320Z,95138.25
2023-09-15T10:34:17.330Z,95219.94
2023-09-15T10:36:45.837Z,95204.84
2023-09-15T10:39:18.382Z,95213.97
2023-09-15T10:41:46.129Z,95203.78
2023-09-15T10:44:13.565Z,95199.25
2023-09-15T10:46:43.211Z,95204.75
2023-09-15T10:49:15.455Z,95201.13
2023-09-15T10:51:56.949Z,95196.88
2023-09-15T10:54:31.014Z,95193.72
2023-09-15T10:56:58.827Z,95192.81
2023-09-15T10:59:27.080Z,95187.25
2023-09-15T11:01:55.165Z,95184.47
2023-09-15T11:04:22.879Z,95174.19
2023-09-15T11:06:51.988Z,95183.44
2023-09-15T11:09:20.515Z,95178.97
2023-09-15T11:11:49.591Z,95171.03
2023-09-15T11:14:17.722Z,95184.22
2023-09-15T11:16:52.780Z,95174.41
2023-09-15T11:19:21.536Z,95183.16
2023-09-15T11:21:49.392Z,95165.34
2023-09-15T11:24:17.247Z,95169.22
2023-09-15T11:26:52.056Z,95160.16
2023-09-15T11:29:45.993Z,95166.09
2023-09-15T11:32:15.960Z,95167.72
2023-09-15T11:34:43.024Z,95173.94
2023-09-15T11:37:10.035Z,95162.72
2023-09-15T11:39:37.739Z,95154.03
2023-09-15T11:42:11.756Z,95159.69
2023-09-15T11:44:38.940Z,95149.31
2023-09-15T11:47:06.601Z,95140.44
2023-09-15T11:49:34.593Z,95144.25
2023-09-15T11:52:01.863Z,95140.81
2023-09-15T11:54:28.863Z,95132.41
2023-09-15T11:56:57.594Z,95128.13
2023-09-15T11:59:25.753Z,95123.38
2023-09-15T12:01:56.157Z,95132.34
2023-09-15T12:04:25.643Z,95123.38
2023-09-15T12:06:52.755Z,95117.09
2023-09-15T12:09:21.030Z,95100.44
2023-09-15T12:11:48.155Z,95119.16
2023-09-15T12:14:15.955Z,95118.25
2023-09-15T12:16:47.420Z,95112.31
2023-09-15T12:19:17.790Z,95116.88
2023-09-15T12:21:56.396Z,95116.56
2023-09-15T12:24:25.178Z,95111.44
2023-09-15T12:26:52.904Z,95107.66
2023-09-15T12:29:20.228Z,95104.56
2023-09-15T12:31:47.353Z,95112.97
2023-09-15T12:34:21.418Z,95108.34
2023-09-15T12:36:50.663Z,95108.84
2023-09-15T12:39:17.882Z,95108.13
2023-09-15T12:41:45.228Z,95089.91
2023-09-15T12:44:12.731Z,95095.91
2023-09-15T12:46:39.855Z,95070.44
2023-09-15T12:49:07.748Z,95081.94
2023-09-15T12:51:35.009Z,95084.88
2023-09-15T12:54:02.269Z,95086.94
2023-09-15T12:56:29.313Z,95083.56
2023-09-15T12:58:56.441Z,95072.91
2023-09-15T13:01:23.443Z,95069.28
2023-09-15T13:03:50.997Z,95071.50
2023-09-15T13:06:18.081Z,95068.34
2023-09-15T13:08:44.917Z,95059.47
2023-09-15T13:24:40.416Z,95059.91
2023-09-15T13:27:07.823Z,95069.09
2023-09-15T13:29:37.613Z,95041.34
2023-09-15T13:32:04.912Z,95035.72
2023-09-15T13:34:33.377Z,95053.66
2023-09-15T13:37:00.605Z,95051.56
2023-09-15T13:39:27.820Z,95060.34
2023-09-15T13:41:54.907Z,95054.69
2023-09-15T13:44:22.058Z,95057.56
2023-09-15T13:46:48.972Z,95040.81
2023-09-15T13:49:17.158Z,95039.31
2023-09-15T13:51:45.017Z,95053.66
2023-09-15T13:54:12.417Z,95053.47
2023-09-15T13:56:39.429Z,95056.06
2023-09-15T13:59:06.500Z,95046.91
2023-09-15T14:01:34.392Z,95061.88
2023-09-15T14:04:01.482Z,95038.59
2023-09-15T14:06:28.652Z,95009.25
2023-09-15T14:08:55.808Z,95052.16
2023-09-15T14:11:22.865Z,95050.28
2023-09-15T14:13:49.852Z,95064.22
2023-09-15T14:16:17.078Z,95066.72
2023-09-15T14:18:44.352Z,95048.25
2023-09-15T14:21:11.433Z,95059.59
2023-09-15T14:23:38.433Z,95044.06
2023-09-15T14:26:05.547Z,95065.22
2023-09-15T14:28:32.553Z,95048.25
2023-09-15T14:31:04.736Z,95056.44
2023-09-15T14:33:32.127Z,95050.81
2023-09-15T14:35:59.127Z,95058.41
2023-09-15T14:38:27.038Z,95062.91
2023-09-15T14:40:54.859Z,95039.28
2023-09-15T14:43:21.992Z,95064.94
2023-09-15T14:45:49.059Z,95057.31
2023-09-15T14:48:17.632Z,95056.88
2023-09-15T14:50:46.429Z,95068.38
2023-09-15T14:53:13.457Z,95058.22
2023-09-15T14:55:40.546Z,95068.50
2023-09-15T14:58:07.523Z,95054.56
2023-09-15T15:00:34.468Z,95065.41
2023-09-15T15:03:03.304Z,95028.13
2023-09-15T15:05:30.581Z,95064.69
2023-09-15T15:07:57.547Z,95063.78
2023-09-15T15:10:25.357Z,95065.06
2023-09-15T15:12:52.419Z,95058.75
2023-09-15T15:15:20.746Z,95077.19
2023-09-15T15:17:47.974Z,95075.16
2023-09-15T15:20:15.233Z,95071.72
2023-09-15T15:22:42.446Z,95077.19
2023-09-15T15:25:09.857Z,95069.22
2023-09-15T15:27:41.582Z,95073.78
2023-09-15T15:30:09.585Z,95063.41
2023-09-15T15:32:38.462Z,95081.63
2023-09-15T15:35:06.175Z,95062.03
2023-09-15T15:37:33.276Z,95042.84
2023-09-15T15:40:00.391Z,95077.22
2023-09-15T15:42:27.680Z,95087.25
2023-09-15T15:44:58.389Z,95086.81
2023-09-15T15:47:25.687Z,95091.94
2023-09-15T15:49:56.415Z,95087.25
2023-09-15T15:52:24.019Z,95088.38
2023-09-15T15:54:51.036Z,95079.50
2023-09-15T15:57:18.081Z,95086.31
2023-09-15T15:59:45.304Z,95086.22
2023-09-15T16:02:14.400Z,95086.22
2023-09-15T16:04:42.113Z,95094.13
2023-09-15T16:07:09.436Z,95098.50
2023-09-15T16:09:36.966Z,95105.47
2023-09-15T16:12:06.782Z,95104.19
2023-09-15T16:14:34.363Z,95101.59
2023-09-15T16:17:01.401Z,95111.34
2023-09-15T16:19:28.494Z,95083.16
2023-09-15T16:21:55.601Z,95111.09
2023-09-15T16:24:22.633Z,95117.97
2023-09-15T16:26:49.943Z,95117.75
2023-09-15T16:29:16.851Z,95117.34
2023-09-15T16:31:43.858Z,95125.72
2023-09-15T16:34:10.813Z,95122.47
2023-09-15T16:36:38.148Z,95126.47
2023-09-15T16:39:05.329Z,95129.06
2023-09-15T16:41:32.497Z,95105.31
2023-09-15T16:43:59.435Z,95142.44
2023-09-15T16:46:26.449Z,95140.53
2023-09-15T16:48:53.570Z,95115.31
2023-09-15T16:51:21.113Z,95145.38
2023-09-15T16:53:48.076Z,95147.34
2023-09-15T16:56:16.217Z,95145.88
2023-09-15T16:58:43.606Z,95141.56
2023-09-15T17:01:10.928Z,95144.13
2023-09-15T17:03:39.269Z,95154.53
2023-09-15T17:06:06.596Z,95149.91
2023-09-15T17:08:33.651Z,95141.13
2023-09-15T17:11:03.095Z,95154.56
2023-09-15T17:13:30.607Z,95138.88
2023-09-15T17:15:57.908Z,95161.78
2023-09-15T17:18:25.708Z,95171.41
2023-09-15T17:20:52.870Z,95180.38
2023-09-15T17:23:19.854Z,95183.09
2023-09-15T17:25:47.231Z,95179.44
2023-09-15T17:28:14.195Z,95181.16
2023-09-15T17:30:41.355Z,95199.13
2023-09-15T17:33:11.312Z,95208.09
2023-09-15T17:35:38.908Z,95196.41
2023-09-15T17:38:06.102Z,95168.38
2023-09-15T17:40:34.476Z,95203.13
2023-09-15T17:43:01.627Z,95218.81
2023-09-15T17:45:28.697Z,95227.78
2023-09-15T17:47:55.864Z,95206.81
2023-09-15T17:50:23.416Z,95184.22
2023-09-15T17:52:51.501Z,95216.59
2023-09-15T17:55:19.549Z,95217.88
2023-09-15T17:57:49.548Z,95200.75
2023-09-15T18:00:18.163Z,95214.66
2023-09-15T18:02:46.718Z,95219.13
2023-09-15T18:05:14.014Z,95222.84
2023-09-15T18:07:41.499Z,95220.13
2023-09-15T18:10:10.029Z,95211.78
2023-09-15T18:12:38.908Z,95223.63
2023-09-15T18:15:13.758Z,95227.47
2023-09-15T18:17:43.598Z,95228.59
2023-09-15T18:20:11.557Z,95231.31
2023-09-15T18:22:40.042Z,95207.75
2023-09-15T18:25:09.752Z,95236.91
2023-09-15T18:27:38.981Z,95226.66
2023-09-15T18:30:06.843Z,95234.16
2023-09-15T18:32:34.448Z,95239.44
2023-09-15T18:35:01.778Z,95243.94
2023-09-15T18:37:28.824Z,95191.50
2023-09-15T18:39:58.508Z,95247.47
2023-09-15T18:42:25.708Z,95243.94
2023-09-15T18:44:52.651Z,95254.38
2023-09-15T18:47:20.657Z,95251.00
2023-09-15T18:49:47.696Z,95264.78
2023-09-15T18:52:15.429Z,95264.28
2023-09-15T18:54:42.789Z,95259.94
2023-09-15T18:57:09.885Z,95265.72
2023-09-15T18:59:37.149Z,95262.41
2023-09-15T19:02:04.477Z,95261.72
2023-09-15T19:04:31.827Z,95277.72
2023-09-15T19:06:59.236Z,95271.63
2023-09-15T19:09:26.542Z,95283.50
2023-09-15T19:11:53.867Z,95278.22
2023-09-15T19:14:20.906Z,95269.22
2023-09-15T19:16:50.856Z,95274.69
2023-09-15T19:19:18.026Z,95283.63
2023-09-15T19:21:46.482Z,95283.50
2023-09-15T19:24:13.812Z,95289.50
2023-09-15T19:26:41.066Z,95281.72
2023-09-15T19:29:09.610Z,95289.38
2023-09-15T19:31:36.614Z,95282.13
2023-09-15T19:34:05.387Z,95283.88
2023-09-15T19:36:32.630Z,95293.34
2023-09-15T19:39:04.759Z,95292.03
2023-09-15T19:41:32.528Z,95283.59
2023-09-15T19:44:00.024Z,95288.69
2023-09-15T19:46:27.251Z,95283.41
2023-09-15T19:48:54.513Z,95284.06
2023-09-15T19:51:22.005Z,95292.25
2023-09-15T19:53:49.260Z,95283.84
2023-09-15T19:56:16.819Z,95241.91
2023-09-15T19:58:44.095Z,95300.75
2023-09-15T20:01:11.677Z,95292.91
2023-09-15T20:03:40.154Z,95292.94
2023-09-15T20:06:07.328Z,95285.69
2023-09-15T20:08:34.339Z,95292.91
2023-09-15T20:11:01.343Z,95291.34
2023-09-15T20:13:28.344Z,95293.41
2023-09-15T20:15:55.625Z,95280.19
2023-09-15T20:18:23.510Z,95290.13
2023-09-15T20:20:53.869Z,95268.97
2023-09-15T20:23:21.245Z,95274.44
2023-09-15T20:25:49.467Z,95284.84
2023-09-15T20:28:17.347Z,95282.69
2023-09-15T20:30:44.481Z,95281.72
2023-09-15T20:33:11.885Z,95286.72
2023-09-15T20:35:44.984Z,95283.63
2023-09-15T20:38:12.139Z,95286.72
2023-09-15T20:40:39.790Z,95276.25
2023-09-15T20:43:07.143Z,95300.59
2023-09-15T20:45:34.601Z,95300.91
2023-09-15T20:48:01.988Z,95291.03
2023-09-15T20:50:29.969Z,95271.53
2023-09-15T20:52:59.704Z,95285.31
2023-09-15T20:55:28.376Z,95277.88
2023-09-15T20:57:55.506Z,95273.22
2023-09-15T21:00:23.111Z,95285.41
2023-09-15T21:02:51.426Z,95295.72
2023-09-15T21:05:18.808Z,95298.19
2023-09-15T21:07:46.759Z,95296.41
2023-09-15T21:10:17.579Z,95286.50
2023-09-15T21:12:47.358Z,95287.03
2023-09-15T21:15:15.308Z,95285.28
2023-09-15T21:17:43.005Z,95289.91
2023-09-15T21:20:11.431Z,95273.44
2023-09-15T21:22:38.966Z,95289.06
2023-09-15T21:25:06.669Z,95298.22
2023-09-15T21:27:33.616Z,95298.69
2023-09-15T21:30:01.291Z,95291.41
2023-09-15T21:32:30.241Z,95301.44
2023-09-15T21:34:59.342Z,95292.00
2023-09-15T21:37:26.248Z,95292.25
2023-09-15T21:39:53.600Z,95289.94
2023-09-15T21:42:24.600Z,95301.59
2023-09-15T21:44:54.306Z,95293.88
2023-09-15T21:47:21.827Z,95292.59
2023-09-15T21:49:49.676Z,95287.97
2023-09-15T21:52:17.026Z,95294.59
2023-09-15T21:54:43.982Z,95293.84
2023-09-15T21:57:14.393Z,95277.34
2023-09-15T21:59:42.307Z,95285.28
2023-09-15T22:02:13.017Z,95277.63
2023-09-15T22:04:43.437Z,95273.22
2023-09-15T22:07:15.867Z,95269.72
2023-09-15T22:09:46.868Z,95277.97
2023-09-15T22:12:18.130Z,95261.03
2023-09-15T22:14:50.071Z,95256.50
2023-09-15T22:17:21.479Z,95265.34
2023-09-15T22:19:49.603Z,95269.47
2023-09-15T22:22:21.895Z,95273.31
2023-09-15T22:25:09.436Z,95282.75
2023-09-15T22:27:36.731Z,95300.63
2023-09-15T22:30:07.036Z,95276.31
2023-09-15T22:32:36.208Z,95284.34
2023-09-15T22:35:08.136Z,95287.66
2023-09-15T22:37:37.717Z,95275.66
2023-09-15T22:40:09.986Z,95283.06
2023-09-15T22:42:39.653Z,95292.41
2023-09-15T22:45:07.809Z,95292.38
2023-09-15T22:47:42.007Z,95283.53
2023-09-15T22:50:11.521Z,95283.38
2023-09-15T22:52:42.652Z,95289.88
2023-09-15T22:55:14.947Z,95309.66
2023-09-15T22:57:42.812Z,95317.50
2023-09-15T23:00:14.176Z,95275.44
2023-09-15T23:02:44.380Z,95293.13
2023-09-15T23:05:14.423Z,95326.16
2023-09-15T23:07:44.577Z,95325.25
2023-09-15T23:10:13.641Z,95324.13
2023-09-15T23:12:42.308Z,95323.00
2023-09-15T23:15:14.055Z,95337.66
2023-09-15T23:17:41.861Z,95314.06
2023-09-15T23:20:09.249Z,95339.28
2023-09-15T23:22:37.952Z,95339.22
2023-09-15T23:25:06.315Z,95335.78
2023-09-15T23:27:35.161Z,95344.56
2023-09-15T23:30:04.613Z,95335.72
2023-09-15T23:32:32.152Z,95343.78
2023-09-15T23:34:59.683Z,95337.25
2023-09-15T23:37:38.071Z,95342.38
2023-09-15T23:40:10.334Z,95341.63
2023-09-15T23:42:42.400Z,95342.03
2023-09-15T23:45:10.222Z,95317.94
2023-09-15T23:47:37.878Z,95324.59
2023-09-15T23:50:08.549Z,95310.34
2023-09-15T23:52:35.641Z,95331.50
2023-09-15T23:55:03.354Z,95332.66
2023-09-15T23:57:30.437Z,95303.59
2023-09-15T23:59:58.253Z,95319.25
